KSFZ/SFZ METAR and TAF weather

Enter ICAO airport designator
Station Type Date Time Source
KSFZ METAR 2020/04/09 10:24 UTC NOAA

KSFZ 091024Z AUTO 23004KT 9SM BKN007 05/04 A2957 RMK AO2


Station Type Date Time Source
KSFZ Decoded METAR 2020/04/09 10:24 UTC NOAA

Pawtucket, North Central State Airport, RI, United States (KSFZ) 41-55N 071-30W
Apr 09, 2020 - 06:24 AM EDT / 2020.04.09 1024 UTC
Wind: from the SW (230 degrees) at 5 MPH (4 KT):0
Visibility: 9 mile(s):0
Sky conditions: mostly cloudy
Temperature: 41 F (5 C)
Dew Point: 39 F (4 C)
Relative Humidity: 93%
Pressure (altimeter): 29.57 in. Hg (1001 hPa)
ob: KSFZ 091024Z AUTO 23004KT 9SM BKN007 05/04 A2957 RMK AO2
cycle: 10

Station Type Date Time Source
KSFZ TAF UTC NOAA

Error!

Example: see airport list